Time;durP1;ratioP1;P1;durP2;ratioP2;P2;SDS_P1;SDS_P2;PMS_P1;PMS_P2;Temp;Humidity;BMP_temperature;BMP_pressure;BME280_temperature;BME280_humidity;BME280_pressure;Samples;Min_cycle;Max_cycle;Signal;HPM_P1;HPM_P2
2022/01/29 00:00:15;;;;;;;11.82;5.75;;;1.20;99.90;;;;;;5049537;28;20570;-76
2022/01/29 00:02:47;;;;;;;10.35;5.43;;;1.10;99.90;;;;;;5070589;28;20705;-73
2022/01/29 00:05:19;;;;;;;9.40;5.15;;;1.10;99.90;;;;;;5054051;28;20438;-73
2022/01/29 00:07:45;;;;;;;9.10;5.20;;;1.10;99.90;;;;;;5072468;28;20410;-74
2022/01/29 00:10:17;;;;;;;11.55;5.95;;;1.10;99.90;;;;;;5066768;28;20047;-73
2022/01/29 00:12:44;;;;;;;11.43;6.35;;;1.10;99.90;;;;;;5033911;28;20306;-73
2022/01/29 00:15:16;;;;;;;9.63;5.65;;;1.00;99.90;;;;;;5051104;28;20499;-74
2022/01/29 00:17:48;;;;;;;9.95;5.53;;;1.00;99.90;;;;;;5067595;28;20083;-74
2022/01/29 00:20:15;;;;;;;10.77;5.63;;;1.00;99.90;;;;;;5034420;28;20076;-73
2022/01/29 00:22:42;;;;;;;9.23;5.15;;;1.00;99.90;;;;;;5033854;28;20412;-73
2022/01/29 00:25:13;;;;;;;8.63;5.75;;;1.00;99.90;;;;;;5035005;28;20039;-74
2022/01/29 00:27:45;;;;;;;9.18;6.20;;;1.00;99.90;;;;;;5067405;28;20061;-74
2022/01/29 00:30:18;;;;;;;8.32;5.40;;;1.00;99.90;;;;;;5067437;28;20064;-74
2022/01/29 00:32:45;;;;;;;8.95;5.35;;;1.00;99.90;;;;;;5051487;28;20500;-73
2022/01/29 00:35:17;;;;;;;10.07;5.70;;;1.00;99.90;;;;;;5060732;28;20472;-74
2022/01/29 00:37:49;;;;;;;12.27;5.90;;;1.00;99.90;;;;;;5038143;28;20044;-74
2022/01/29 00:40:15;;;;;;;12.00;6.25;;;1.00;99.90;;;;;;5053616;28;20049;-73
2022/01/29 00:42:48;;;;;;;8.48;5.25;;;1.00;99.90;;;;;;5037212;28;20545;-74
2022/01/29 00:45:19;;;;;;;14.43;6.50;;;1.00;99.90;;;;;;5071785;28;20124;-73
2022/01/29 00:47:51;;;;;;;10.35;5.90;;;1.00;99.90;;;;;;5055035;28;20399;-74
2022/01/29 00:50:18;;;;;;;8.88;5.57;;;1.00;99.90;;;;;;5070207;28;20467;-74
2022/01/29 00:52:47;;;;;;;8.65;5.70;;;1.00;99.90;;;;;;5070050;28;20072;-74
2022/01/29 00:55:18;;;;;;;11.93;5.88;;;1.00;99.90;;;;;;5053510;28;20044;-74
2022/01/29 00:57:50;;;;;;;11.93;5.75;;;1.10;99.90;;;;;;5070107;28;20045;-73
2022/01/29 01:00:22;;;;;;;8.85;5.10;;;1.10;99.90;;;;;;5071394;28;20049;-74
2022/01/29 01:02:49;;;;;;;7.65;4.97;;;1.10;99.90;;;;;;5052945;28;20051;-74
2022/01/29 01:05:21;;;;;;;11.60;5.28;;;1.20;99.90;;;;;;5053201;28;20045;-74
2022/01/29 01:07:52;;;;;;;10.52;5.78;;;1.20;99.90;;;;;;5071106;28;20537;-74
2022/01/29 01:10:24;;;;;;;7.95;4.43;;;1.20;99.90;;;;;;5053218;28;20044;-74
2022/01/29 01:12:56;;;;;;;8.75;5.13;;;1.20;99.90;;;;;;5070678;28;20495;-74
2022/01/29 01:15:22;;;;;;;10.88;5.38;;;1.10;99.90;;;;;;5053186;28;20109;-74
2022/01/29 01:17:54;;;;;;;7.85;4.70;;;1.10;99.90;;;;;;5051924;28;20127;-73
2022/01/29 01:20:26;;;;;;;6.75;5.03;;;1.10;99.90;;;;;;5067869;28;20035;-74
2022/01/29 01:22:58;;;;;;;10.43;5.18;;;1.10;99.90;;;;;;5069120;28;20047;-73
2022/01/29 01:25:30;;;;;;;7.22;5.18;;;1.10;99.90;;;;;;5050828;28;20037;-73
2022/01/29 01:28:02;;;;;;;9.02;4.80;;;1.00;99.90;;;;;;5050060;28;20068;-73
2022/01/29 01:30:28;;;;;;;10.13;5.25;;;1.10;99.90;;;;;;5031296;28;20041;-73
2022/01/29 01:32:55;;;;;;;6.90;5.25;;;1.00;99.90;;;;;;5050520;28;20128;-73
2022/01/29 01:35:33;;;;;;;7.38;4.80;;;1.00;99.90;;;;;;5052891;28;20044;-74
2022/01/29 01:40:32;;;;;;;9.60;4.95;;;1.10;99.90;;;;;;5069671;28;20058;-73
2022/01/29 01:43:03;;;;;;;9.75;4.57;;;1.10;99.90;;;;;;5053371;28;20032;-73
2022/01/29 01:45:30;;;;;;;9.15;5.25;;;1.10;99.90;;;;;;5069614;28;20518;-73
2022/01/29 01:48:05;;;;;;;6.80;4.38;;;1.20;99.90;;;;;;5052998;28;20127;-74
2022/01/29 01:50:33;;;;;;;9.52;4.72;;;1.20;99.90;;;;;;5070821;28;20083;-73
2022/01/29 01:53:05;;;;;;;12.48;5.15;;;1.20;99.90;;;;;;5053400;28;20127;-73
2022/01/29 01:55:37;;;;;;;8.35;4.28;;;1.20;99.90;;;;;;5036996;28;20044;-73
2022/01/29 01:58:09;;;;;;;5.30;4.10;;;1.30;99.90;;;;;;5053828;28;20040;-73
2022/01/29 02:00:36;;;;;;;8.52;4.90;;;1.30;99.90;;;;;;5070105;28;20075;-74
2022/01/29 02:03:02;;;;;;;7.38;3.95;;;1.30;99.90;;;;;;5051710;28;20138;-73
2022/01/29 02:05:34;;;;;;;8.30;4.65;;;1.30;99.90;;;;;;5053084;28;20072;-74
2022/01/29 02:08:08;;;;;;;8.18;4.30;;;1.30;99.90;;;;;;5036304;28;20114;-73
2022/01/29 02:10:40;;;;;;;6.60;4.40;;;1.30;99.90;;;;;;5036413;28;20044;-73
2022/01/29 02:13:06;;;;;;;6.80;4.97;;;1.30;99.90;;;;;;5052239;28;20076;-73
2022/01/29 02:15:33;;;;;;;8.02;4.88;;;1.30;99.90;;;;;;5052569;28;20705;-74
2022/01/29 02:18:05;;;;;;;7.82;4.22;;;1.30;99.90;;;;;;5037644;28;20059;-73
2022/01/29 02:20:37;;;;;;;5.65;4.28;;;1.30;99.90;;;;;;5073989;28;20154;-73
2022/01/29 02:23:09;;;;;;;5.35;3.60;;;1.40;99.90;;;;;;5039444;28;20132;-73
2022/01/29 02:25:46;;;;;;;9.32;4.38;;;1.40;99.90;;;;;;5056709;28;20117;-73
2022/01/29 02:28:20;;;;;;;8.35;4.00;;;1.40;99.90;;;;;;5039737;28;20127;-73
2022/01/29 02:30:49;;;;;;;8.93;4.78;;;1.40;99.90;;;;;;5073649;28;20041;-73
2022/01/29 02:33:21;;;;;;;8.23;3.83;;;1.40;99.90;;;;;;5073618;28;20110;-74
2022/01/29 02:35:54;;;;;;;6.38;3.90;;;1.40;99.90;;;;;;5040308;28;20075;-73
2022/01/29 02:38:24;;;;;;;6.07;3.70;;;1.40;99.90;;;;;;5056431;28;20049;-73
2022/01/29 02:41:02;;;;;;;7.07;4.45;;;1.40;99.90;;;;;;5072715;28;20044;-74
2022/01/29 02:43:48;;;;;;;6.25;4.10;;;1.40;99.90;;;;;;5039655;28;20060;-74
2022/01/29 02:48:44;;;;;;;8.90;4.68;;;1.30;99.90;;;;;;5072728;28;20139;-74
2022/01/29 02:51:17;;;;;;;6.88;4.28;;;1.30;99.90;;;;;;5055750;28;20044;-74
2022/01/29 02:53:49;;;;;;;9.85;4.35;;;1.30;99.90;;;;;;5055405;28;20054;-73
2022/01/29 02:56:16;;;;;;;7.93;4.35;;;1.30;99.90;;;;;;5073908;28;20115;-73
2022/01/29 02:58:43;;;;;;;6.40;4.63;;;1.30;99.90;;;;;;5055840;28;20499;-73
2022/01/29 03:01:15;;;;;;;7.78;3.92;;;1.20;99.90;;;;;;5055625;28;20451;-74
2022/01/29 03:03:46;;;;;;;6.07;4.03;;;1.20;99.90;;;;;;5056115;28;20132;-74
2022/01/29 03:06:13;;;;;;;7.68;3.85;;;1.20;99.90;;;;;;5055483;28;20131;-73
2022/01/29 03:08:45;;;;;;;8.88;4.47;;;1.20;99.90;;;;;;5072292;28;20140;-74
2022/01/29 03:11:19;;;;;;;10.98;4.07;;;1.20;99.90;;;;;;5055151;28;20499;-73
2022/01/29 03:13:51;;;;;;;6.65;3.60;;;1.20;99.90;;;;;;5055969;28;20124;-73
2022/01/29 03:16:19;;;;;;;9.77;4.30;;;1.30;99.90;;;;;;5055357;28;20052;-73
2022/01/29 03:18:45;;;;;;;6.43;3.78;;;1.30;99.90;;;;;;5038776;28;20084;-74
2022/01/29 03:21:17;;;;;;;5.30;3.70;;;1.30;99.90;;;;;;5055027;28;20040;-73
2022/01/29 03:23:49;;;;;;;6.03;3.55;;;1.30;99.90;;;;;;5071478;28;20040;-73
2022/01/29 03:26:21;;;;;;;6.20;3.70;;;1.30;99.90;;;;;;5055028;28;20132;-73
2022/01/29 03:28:47;;;;;;;5.55;3.75;;;1.30;99.90;;;;;;5055025;28;20139;-74
2022/01/29 03:31:20;;;;;;;4.22;3.20;;;1.30;99.90;;;;;;5054983;28;20032;-73
2022/01/29 03:33:47;;;;;;;6.47;3.13;;;1.30;99.90;;;;;;5072570;28;20131;-74
2022/01/29 03:36:19;;;;;;;5.22;3.70;;;1.30;99.90;;;;;;5055022;28;20127;-74
2022/01/29 03:38:45;;;;;;;4.05;3.00;;;1.30;99.90;;;;;;5071571;28;20053;-74
2022/01/29 03:41:17;;;;;;;6.95;3.20;;;1.30;99.90;;;;;;5071741;28;20071;-73
2022/01/29 03:43:51;;;;;;;5.32;3.28;;;1.30;99.90;;;;;;5038445;28;20567;-73
2022/01/29 03:46:18;;;;;;;5.40;2.60;;;1.30;99.90;;;;;;5055154;28;20075;-74
2022/01/29 03:48:50;;;;;;;4.60;3.25;;;1.30;99.90;;;;;;5038938;28;20056;-73
2022/01/29 03:51:22;;;;;;;4.32;2.72;;;1.30;99.90;;;;;;5038778;28;20072;-73
2022/01/29 03:53:54;;;;;;;6.00;3.08;;;1.30;99.90;;;;;;5038404;28;20415;-73
2022/01/29 03:56:25;;;;;;;5.53;3.40;;;1.30;99.90;;;;;;5063689;28;20060;-73
2022/01/29 03:58:57;;;;;;;4.63;3.38;;;1.30;99.90;;;;;;5052543;28;20045;-73
2022/01/29 04:01:24;;;;;;;6.47;3.30;;;1.30;99.90;;;;;;5067811;28;20570;-73
2022/01/29 04:03:51;;;;;;;7.25;3.60;;;1.30;99.90;;;;;;5067327;28;20136;-74
2022/01/29 04:06:17;;;;;;;4.78;3.25;;;1.30;99.90;;;;;;5067736;28;20140;-73
2022/01/29 04:08:44;;;;;;;6.05;3.40;;;1.30;99.90;;;;;;5051245;28;20128;-73
2022/01/29 04:11:16;;;;;;;5.90;3.40;;;1.30;99.90;;;;;;5069071;28;20047;-73
2022/01/29 04:13:49;;;;;;;4.57;3.38;;;1.40;99.90;;;;;;5070747;28;20040;-73
2022/01/29 04:16:21;;;;;;;7.78;3.65;;;1.40;99.90;;;;;;5054319;28;20127;-73
2022/01/29 04:18:48;;;;;;;9.80;3.83;;;1.40;99.90;;;;;;5054351;28;20143;-74
2022/01/29 04:21:19;;;;;;;5.70;3.13;;;1.40;99.90;;;;;;5071942;28;20116;-73
2022/01/29 04:23:51;;;;;;;5.13;2.75;;;1.40;99.90;;;;;;5054592;28;20483;-73
2022/01/29 04:26:18;;;;;;;5.97;2.70;;;1.40;99.90;;;;;;5053964;28;20053;-73
2022/01/29 04:28:51;;;;;;;5.80;3.45;;;1.40;99.90;;;;;;5071922;28;20380;-73
2022/01/29 04:31:20;;;;;;;8.88;3.38;;;1.40;99.90;;;;;;5071726;28;20068;-73
2022/01/29 04:33:47;;;;;;;5.90;2.80;;;1.40;99.90;;;;;;5053506;28;20127;-73
2022/01/29 04:36:19;;;;;;;4.35;2.72;;;1.40;99.90;;;;;;5071679;28;20111;-73
2022/01/29 04:38:51;;;;;;;6.88;3.17;;;1.40;99.90;;;;;;5053953;28;20511;-74
2022/01/29 04:41:22;;;;;;;5.32;3.47;;;1.40;99.90;;;;;;5053119;28;20135;-73
2022/01/29 04:43:54;;;;;;;6.28;3.50;;;1.40;99.90;;;;;;5070119;28;20041;-74
2022/01/29 04:46:26;;;;;;;7.47;3.65;;;1.50;99.90;;;;;;5071462;28;20051;-74
2022/01/29 04:48:58;;;;;;;5.30;3.25;;;1.50;99.90;;;;;;5068389;28;20136;-73
2022/01/29 04:51:29;;;;;;;7.15;3.42;;;1.50;99.90;;;;;;5051520;28;20123;-73
2022/01/29 04:54:02;;;;;;;5.00;3.08;;;1.50;99.90;;;;;;5033210;28;20051;-74
2022/01/29 04:56:28;;;;;;;8.13;3.65;;;1.50;99.90;;;;;;5051462;28;20041;-73
2022/01/29 04:59:01;;;;;;;5.43;3.17;;;1.50;99.90;;;;;;5033498;28;20049;-73
2022/01/29 05:01:33;;;;;;;9.13;4.63;;;1.50;99.90;;;;;;5051312;28;20073;-74
2022/01/29 05:04:00;;;;;;;6.55;3.47;;;1.60;99.90;;;;;;5032810;28;20139;-73
2022/01/29 05:06:31;;;;;;;8.40;3.60;;;1.60;99.90;;;;;;5033461;28;20041;-73
2022/01/29 05:09:06;;;;;;;6.53;4.28;;;1.60;99.90;;;;;;5050598;28;20123;-73
2022/01/29 05:11:41;;;;;;;9.38;4.10;;;1.60;99.90;;;;;;5034231;28;20041;-74
2022/01/29 05:14:22;;;;;;;8.00;3.88;;;1.60;99.90;;;;;;5050857;28;20040;-73
2022/01/29 05:26:48;;;;;;;6.13;3.92;;;1.60;99.90;;;;;;5033389;28;20587;-73
2022/01/29 05:26:51;;;;;;;9.98;4.03;;;1.70;99.90;;;;;;5050930;28;20140;-73
2022/01/29 05:28:28;;;;;;;8.20;3.75;;;1.70;99.90;;;;;;5051035;28;20065;-73
2022/01/29 05:30:55;;;;;;;11.07;4.82;;;1.80;99.90;;;;;;5052229;28;20132;-74
2022/01/29 05:33:27;;;;;;;8.90;4.43;;;1.80;99.90;;;;;;5034892;28;20051;-73
2022/01/29 05:35:58;;;;;;;9.45;4.55;;;1.80;99.90;;;;;;5049915;28;20037;-73
2022/01/29 05:38:30;;;;;;;7.10;4.75;;;1.80;99.90;;;;;;5051024;28;20044;-73
2022/01/29 05:41:03;;;;;;;5.82;4.00;;;1.80;99.90;;;;;;5033068;28;20468;-73
2022/01/29 05:43:35;;;;;;;9.90;4.97;;;1.90;99.90;;;;;;5050437;28;20041;-74
2022/01/29 05:46:02;;;;;;;7.97;4.40;;;1.90;99.90;;;;;;5050828;28;20493;-74
2022/01/29 05:48:34;;;;;;;5.53;3.63;;;1.90;99.90;;;;;;5036208;28;20037;-73
2022/01/29 05:51:07;;;;;;;7.13;4.25;;;1.90;99.90;;;;;;5053032;28;20055;-73
2022/01/29 05:53:34;;;;;;;13.13;4.72;;;1.90;99.90;;;;;;5073829;28;20513;-73
2022/01/29 05:56:01;;;;;;;8.90;4.32;;;2.00;99.90;;;;;;5075600;28;20119;-72
2022/01/29 05:58:33;;;;;;;6.57;4.10;;;2.00;99.90;;;;;;5074781;28;20135;-73
2022/01/29 06:01:00;;;;;;;6.32;4.60;;;2.00;99.90;;;;;;5074687;28;20048;-73
2022/01/29 06:03:32;;;;;;;6.40;4.18;;;2.00;99.90;;;;;;5057086;28;20040;-73
2022/01/29 06:05:59;;;;;;;12.77;4.32;;;2.00;99.90;;;;;;5056413;28;20067;-73
2022/01/29 06:08:30;;;;;;;12.43;4.60;;;2.10;99.90;;;;;;5073235;28;20051;-73
2022/01/29 06:11:02;;;;;;;8.50;5.63;;;2.00;99.90;;;;;;5056744;28;20090;-74
2022/01/29 06:13:34;;;;;;;7.10;4.03;;;2.00;99.90;;;;;;5074056;28;20036;-73
2022/01/29 06:16:06;;;;;;;6.57;4.63;;;2.00;99.90;;;;;;5074464;28;20051;-73
2022/01/29 06:18:38;;;;;;;8.00;4.68;;;2.00;99.90;;;;;;5057419;28;20045;-73
2022/01/29 06:21:13;;;;;;;8.88;4.93;;;2.10;99.90;;;;;;5073150;28;20055;-73
2022/01/29 06:23:40;;;;;;;7.25;4.50;;;2.10;99.90;;;;;;5055861;28;20418;-73
2022/01/29 06:26:13;;;;;;;8.23;4.80;;;2.10;99.90;;;;;;5074195;28;20036;-73
2022/01/29 06:28:44;;;;;;;8.77;5.03;;;2.10;99.90;;;;;;5069211;28;20033;-73
2022/01/29 06:31:11;;;;;;;7.88;5.10;;;2.10;99.90;;;;;;5064210;28;20045;-73
2022/01/29 06:33:38;;;;;;;8.77;5.38;;;2.00;99.90;;;;;;5055668;28;20143;-73
2022/01/29 06:36:05;;;;;;;6.57;4.75;;;2.10;99.90;;;;;;5073846;28;20044;-73
2022/01/29 06:38:32;;;;;;;8.77;4.72;;;2.10;99.90;;;;;;5056190;28;20071;-73
2022/01/29 06:40:59;;;;;;;10.00;5.13;;;2.10;99.90;;;;;;5057139;28;20037;-73
2022/01/29 06:43:31;;;;;;;8.30;5.13;;;2.10;99.90;;;;;;5053694;28;20482;-73
2022/01/29 06:46:03;;;;;;;12.48;4.97;;;2.10;99.90;;;;;;5052589;28;20041;-73
2022/01/29 06:48:34;;;;;;;6.82;4.38;;;2.10;99.90;;;;;;5034734;28;20041;-73
2022/01/29 06:51:01;;;;;;;8.35;5.38;;;2.20;99.90;;;;;;5053304;28;20061;-72
2022/01/29 06:53:33;;;;;;;6.28;3.95;;;2.20;99.90;;;;;;5045005;28;20147;-73
2022/01/29 06:56:05;;;;;;;11.23;4.75;;;2.20;99.90;;;;;;5073815;28;20093;-73
2022/01/29 06:58:36;;;;;;;10.80;4.70;;;2.20;99.90;;;;;;5056964;28;20060;-72
2022/01/29 07:01:08;;;;;;;6.97;4.55;;;2.20;99.90;;;;;;5075747;28;20045;-73
2022/01/29 07:03:40;;;;;;;8.60;4.65;;;2.20;99.90;;;;;;5054438;28;20145;-74
2022/01/29 07:06:07;;;;;;;8.20;5.10;;;2.20;99.90;;;;;;5072065;28;20082;-73
2022/01/29 07:08:39;;;;;;;9.35;5.47;;;2.20;99.90;;;;;;5061558;28;20045;-72
2022/01/29 07:11:06;;;;;;;7.85;4.90;;;2.30;99.90;;;;;;5068862;28;20076;-72
2022/01/29 07:13:38;;;;;;;8.73;5.85;;;2.30;99.90;;;;;;5035910;28;20044;-73
2022/01/29 07:16:10;;;;;;;8.50;5.35;;;2.30;99.90;;;;;;5053251;28;20045;-73
2022/01/29 07:18:42;;;;;;;9.90;5.50;;;2.30;99.90;;;;;;5053363;28;20064;-73
2022/01/29 07:21:09;;;;;;;11.50;6.20;;;2.30;99.90;;;;;;5051950;28;20049;-73
2022/01/29 07:23:41;;;;;;;12.68;6.95;;;2.30;99.90;;;;;;5052798;28;20136;-72
2022/01/29 07:26:07;;;;;;;10.30;6.03;;;2.40;99.90;;;;;;5051989;28;20045;-73
2022/01/29 07:28:34;;;;;;;11.38;7.05;;;2.40;99.90;;;;;;5058254;28;20072;-73
2022/01/29 07:31:02;;;;;;;10.40;6.40;;;2.40;99.90;;;;;;5052958;28;20041;-73
2022/01/29 07:33:34;;;;;;;12.90;6.53;;;2.40;99.90;;;;;;5041285;28;20046;-72
2022/01/29 07:36:06;;;;;;;12.65;7.75;;;2.40;99.90;;;;;;5055400;28;20087;-73
2022/01/29 07:38:38;;;;;;;12.88;7.32;;;2.40;99.90;;;;;;5071293;28;20068;-73
2022/01/29 07:41:05;;;;;;;10.80;6.50;;;2.50;99.90;;;;;;5054778;28;20040;-73
2022/01/29 07:43:37;;;;;;;18.25;8.18;;;2.50;99.90;;;;;;5069960;28;20036;-73
2022/01/29 07:46:08;;;;;;;14.30;6.72;;;2.50;99.90;;;;;;5066836;28;20051;-73
2022/01/29 07:48:36;;;;;;;13.30;7.22;;;2.50;99.90;;;;;;5034929;28;20087;-73
2022/01/29 07:51:08;;;;;;;12.38;7.05;;;2.50;99.90;;;;;;5067377;28;20434;-73
2022/01/29 07:53:39;;;;;;;11.10;7.28;;;2.50;99.90;;;;;;5051970;28;20466;-73
2022/01/29 07:56:11;;;;;;;14.73;7.30;;;2.60;99.90;;;;;;5050893;28;20045;-73
2022/01/29 07:58:43;;;;;;;12.50;7.53;;;2.60;99.90;;;;;;5052430;28;20041;-73
2022/01/29 08:01:11;;;;;;;14.15;8.07;;;2.60;99.90;;;;;;5072131;28;20041;-73
2022/01/29 08:03:38;;;;;;;14.65;7.55;;;2.60;99.90;;;;;;5071174;28;20131;-73
2022/01/29 08:06:05;;;;;;;11.80;7.53;;;2.70;99.90;;;;;;5061467;28;20045;-73
2022/01/29 08:08:32;;;;;;;15.15;8.20;;;2.70;99.90;;;;;;5050123;28;20039;-73
2022/01/29 08:11:03;;;;;;;13.45;8.10;;;2.80;99.90;;;;;;5054428;28;20036;-73
2022/01/29 08:13:30;;;;;;;12.25;7.90;;;2.80;99.90;;;;;;5070690;28;20123;-73
2022/01/29 08:16:03;;;;;;;14.25;7.22;;;2.80;99.90;;;;;;5037479;28;20076;-74
2022/01/29 08:18:30;;;;;;;13.02;7.40;;;2.80;99.90;;;;;;5071424;28;20778;-73
2022/01/29 08:21:02;;;;;;;12.13;7.72;;;2.80;99.90;;;;;;5070902;28;20033;-73
2022/01/29 08:23:34;;;;;;;11.95;8.00;;;2.80;99.90;;;;;;5037483;28;20061;-73
2022/01/29 08:26:06;;;;;;;14.07;8.10;;;2.80;99.90;;;;;;5071504;28;20660;-75
2022/01/29 08:28:33;;;;;;;16.30;9.60;;;2.90;99.90;;;;;;5065768;28;20411;-74
2022/01/29 08:31:00;;;;;;;12.15;7.60;;;2.90;99.90;;;;;;5053216;28;20055;-73
2022/01/29 08:33:32;;;;;;;13.05;7.13;;;2.90;99.90;;;;;;5053493;28;20046;-73
2022/01/29 08:36:00;;;;;;;11.13;7.65;;;2.90;99.90;;;;;;5070302;28;20119;-73
2022/01/29 08:38:31;;;;;;;10.65;6.82;;;2.90;99.90;;;;;;5069944;28;20131;-74
2022/01/29 08:41:04;;;;;;;13.20;6.22;;;2.90;99.90;;;;;;5071319;28;20032;-73
2022/01/29 08:43:32;;;;;;;10.15;6.20;;;2.90;99.90;;;;;;5053588;28;20071;-74
2022/01/29 08:46:04;;;;;;;12.40;7.25;;;3.00;99.90;;;;;;5037269;28;20032;-73
2022/01/29 08:48:36;;;;;;;11.55;6.82;;;3.00;99.90;;;;;;5071251;28;20043;-74
2022/01/29 08:51:03;;;;;;;12.07;6.28;;;3.00;99.90;;;;;;5070204;28;20606;-72
2022/01/29 08:53:35;;;;;;;9.35;6.07;;;3.00;99.90;;;;;;5071126;28;20032;-73
2022/01/29 08:56:07;;;;;;;13.30;6.45;;;3.00;99.90;;;;;;5070712;28;20048;-73
2022/01/29 08:58:39;;;;;;;11.30;6.43;;;3.10;99.90;;;;;;5070876;28;20132;-73
2022/01/29 09:01:12;;;;;;;11.10;6.43;;;3.10;99.90;;;;;;5053761;28;20044;-73
2022/01/29 09:03:44;;;;;;;9.88;5.53;;;3.10;99.90;;;;;;5050519;28;20051;-73
2022/01/29 09:06:16;;;;;;;10.38;6.22;;;3.10;99.90;;;;;;5045116;28;20051;-73
2022/01/29 09:08:50;;;;;;;11.23;6.72;;;3.10;99.90;;;;;;5071787;28;20418;-73
2022/01/29 09:11:22;;;;;;;11.43;6.65;;;3.10;99.90;;;;;;5072792;28;20032;-73
2022/01/29 09:13:54;;;;;;;10.68;5.70;;;3.10;99.90;;;;;;5070645;28;20159;-73
2022/01/29 09:16:26;;;;;;;8.38;5.63;;;3.10;99.90;;;;;;5070907;28;20519;-72
2022/01/29 09:18:57;;;;;;;11.27;5.97;;;3.10;99.90;;;;;;5070682;28;20048;-73
2022/01/29 09:21:29;;;;;;;9.60;6.07;;;3.10;99.90;;;;;;5053952;28;20051;-74
2022/01/29 09:24:01;;;;;;;8.25;5.28;;;3.10;99.90;;;;;;5052394;28;20541;-72
2022/01/29 09:26:33;;;;;;;8.68;5.38;;;3.10;99.90;;;;;;5053234;28;20376;-73
2022/01/29 09:29:05;;;;;;;12.23;6.50;;;3.10;99.90;;;;;;5052845;28;20045;-73
2022/01/29 09:31:32;;;;;;;9.98;6.40;;;3.10;99.90;;;;;;5033518;28;20503;-72
2022/01/29 09:34:04;;;;;;;11.48;7.55;;;3.10;99.90;;;;;;5050809;28;20041;-73
2022/01/29 09:36:37;;;;;;;10.43;6.85;;;3.10;99.90;;;;;;5051240;28;20076;-74
2022/01/29 09:39:10;;;;;;;10.20;5.35;;;3.10;99.90;;;;;;5049295;28;20111;-74
2022/01/29 09:41:44;;;;;;;9.23;5.15;;;3.10;99.90;;;;;;5069195;28;20123;-73
2022/01/29 09:44:12;;;;;;;11.55;5.97;;;3.10;99.90;;;;;;5062275;28;20651;-73
2022/01/29 09:46:40;;;;;;;10.70;5.47;;;3.20;99.90;;;;;;5069675;28;20059;-73
2022/01/29 09:49:12;;;;;;;11.30;6.07;;;3.20;99.90;;;;;;5069680;28;20043;-74
2022/01/29 09:51:44;;;;;;;9.20;5.75;;;3.30;99.90;;;;;;5069866;28;20037;-73
2022/01/29 09:54:16;;;;;;;9.38;5.70;;;3.30;99.90;;;;;;5036655;28;20388;-74
2022/01/29 09:56:43;;;;;;;8.63;6.30;;;3.30;99.90;;;;;;5070787;28;20040;-73
2022/01/29 09:59:10;;;;;;;8.88;5.80;;;3.30;99.90;;;;;;5069691;28;20060;-73
2022/01/29 10:01:41;;;;;;;7.60;5.28;;;3.40;99.90;;;;;;5072163;28;20395;-73
2022/01/29 10:04:13;;;;;;;7.97;5.13;;;3.40;99.90;;;;;;5052313;28;20044;-73
2022/01/29 10:07:05;;;;;;;8.05;5.35;;;3.40;99.90;;;;;;5070830;28;20079;-73
2022/01/29 10:09:36;;;;;;;11.23;5.10;;;3.40;99.90;;;;;;5070764;28;20041;-73
2022/01/29 10:12:28;;;;;;;10.43;5.25;;;3.40;99.90;;;;;;5052631;28;20418;-73
2022/01/29 10:15:01;;;;;;;8.13;5.47;;;3.40;99.90;;;;;;5070500;28;20044;-72
2022/01/29 10:17:47;;;;;;;8.45;4.75;;;3.50;99.90;;;;;;5070527;28;20036;-73
2022/01/29 10:20:26;;;;;;;8.60;5.43;;;3.50;99.90;;;;;;5052492;28;20059;-73
2022/01/29 10:23:00;;;;;;;8.43;4.93;;;3.60;99.90;;;;;;5070126;28;20127;-73
2022/01/29 10:25:36;;;;;;;8.27;5.53;;;3.60;99.90;;;;;;5054063;28;20037;-73
2022/01/29 10:28:09;;;;;;;8.38;4.80;;;3.70;99.90;;;;;;5032677;28;20059;-73
2022/01/29 10:30:51;;;;;;;9.82;5.13;;;3.70;99.90;;;;;;5016958;28;20055;-74
2022/01/29 10:33:31;;;;;;;8.13;4.57;;;3.70;99.90;;;;;;5016875;28;20045;-73
2022/01/29 10:36:08;;;;;;;7.35;4.88;;;3.70;99.90;;;;;;5052884;28;20447;-74
2022/01/29 10:38:40;;;;;;;8.85;5.40;;;3.70;99.90;;;;;;5052677;28;20051;-73
2022/01/29 10:41:26;;;;;;;7.50;5.32;;;3.80;99.90;;;;;;5073881;28;20068;-73
2022/01/29 10:44:20;;;;;;;8.18;4.85;;;3.80;99.90;;;;;;5038165;28;20049;-73
2022/01/29 10:46:54;;;;;;;11.00;5.60;;;3.80;99.90;;;;;;5054618;28;20036;-73
2022/01/29 10:49:32;;;;;;;8.05;4.90;;;3.90;99.90;;;;;;5055537;28;20033;-73
2022/01/29 10:52:12;;;;;;;8.77;5.13;;;3.90;99.90;;;;;;5073352;28;20410;-74
2022/01/29 10:54:51;;;;;;;8.75;4.80;;;4.00;99.90;;;;;;5054999;28;20062;-73
2022/01/29 10:57:18;;;;;;;8.75;5.90;;;4.00;99.90;;;;;;5071718;28;20048;-73
2022/01/29 10:59:54;;;;;;;9.18;5.50;;;4.00;99.90;;;;;;5039233;28;20515;-73
2022/01/29 11:02:29;;;;;;;7.70;4.78;;;4.10;99.90;;;;;;5055552;28;20064;-74
2022/01/29 11:05:03;;;;;;;8.40;5.00;;;4.20;99.90;;;;;;5054951;28;20036;-73
2022/01/29 11:07:36;;;;;;;10.07;5.25;;;4.30;99.90;;;;;;5072902;28;20051;-73
2022/01/29 11:10:09;;;;;;;7.28;4.63;;;4.40;99.90;;;;;;5055678;28;20040;-73
2022/01/29 11:12:49;;;;;;;10.35;5.15;;;4.50;99.90;;;;;;5054494;28;20736;-73
2022/01/29 11:15:22;;;;;;;7.30;4.50;;;4.50;99.90;;;;;;5038303;28;20053;-73
2022/01/29 11:17:50;;;;;;;8.45;4.80;;;4.60;99.90;;;;;;5035028;28;20055;-73
2022/01/29 11:20:22;;;;;;;8.50;4.55;;;4.60;99.90;;;;;;5034844;28;20040;-73
2022/01/29 11:22:54;;;;;;;8.90;4.82;;;4.60;99.90;;;;;;5034687;28;20423;-73
2022/01/29 11:25:31;;;;;;;8.40;4.88;;;4.60;99.90;;;;;;5054481;28;20040;-73
2022/01/29 11:28:13;;;;;;;8.32;5.15;;;4.70;99.90;;;;;;5037533;28;20036;-73
2022/01/29 11:30:47;;;;;;;7.63;4.50;;;4.70;99.90;;;;;;5047768;28;20043;-73
2022/01/29 11:33:19;;;;;;;;;;;4.70;99.90;;;;;;5038484;28;20044;-73
2022/01/29 11:35:51;;;;;;;7.22;4.95;;;4.80;99.90;;;;;;5051118;28;19963;-73
2022/01/29 11:38:32;;;;;;;6.75;4.15;;;4.80;99.90;;;;;;5051392;28;20045;-73
2022/01/29 11:41:04;;;;;;;6.05;3.90;;;4.90;99.90;;;;;;5052171;28;20116;-73
2022/01/29 11:43:37;;;;;;;6.32;3.80;;;5.00;99.90;;;;;;5051881;28;20047;-73
2022/01/29 11:46:32;;;;;;;6.85;3.70;;;5.00;99.90;;;;;;5050936;28;20076;-73
2022/01/29 11:49:16;;;;;;;6.32;4.13;;;5.00;99.90;;;;;;5055307;28;20079;-72
2022/01/29 11:51:46;;;;;;;6.00;3.97;;;5.00;99.90;;;;;;5064035;28;20108;-73
2022/01/29 11:54:21;;;;;;;6.60;3.90;;;5.00;99.90;;;;;;5070852;28;20143;-73
2022/01/29 11:57:08;;;;;;;6.93;3.58;;;5.00;99.90;;;;;;5055544;28;20113;-73
2022/01/29 11:59:41;;;;;;;5.07;2.85;;;5.10;99.90;;;;;;5070769;28;20068;-74
2022/01/29 12:02:14;;;;;;;5.70;3.10;;;5.10;99.90;;;;;;5072152;28;20041;-73
2022/01/29 12:04:53;;;;;;;6.72;3.60;;;5.10;99.90;;;;;;5050833;28;20040;-73
2022/01/29 12:07:30;;;;;;;4.95;3.35;;;5.20;99.90;;;;;;5055221;28;20406;-73
2022/01/29 12:10:12;;;;;;;4.72;3.05;;;5.20;99.90;;;;;;5071706;28;20045;-73
2022/01/29 12:12:46;;;;;;;5.75;3.40;;;5.30;99.90;;;;;;5053644;28;20090;-73
2022/01/29 12:15:12;;;;;;;5.57;2.70;;;5.40;99.90;;;;;;5070888;28;20041;-73
2022/01/29 12:17:50;;;;;;;4.18;2.75;;;5.50;99.90;;;;;;5054205;28;20054;-73
2022/01/29 12:20:24;;;;;;;4.80;2.85;;;5.60;99.90;;;;;;5070945;28;20041;-73
2022/01/29 12:22:57;;;;;;;4.63;2.38;;;5.70;99.90;;;;;;5062912;28;20397;-73
2022/01/29 12:25:28;;;;;;;4.18;2.63;;;5.80;99.90;;;;;;5063103;28;20128;-74
2022/01/29 12:28:03;;;;;;;3.08;2.20;;;5.80;99.90;;;;;;5070404;28;20492;-74
2022/01/29 12:30:40;;;;;;;5.20;1.95;;;5.80;99.90;;;;;;5051999;28;20047;-74
2022/01/29 12:33:18;;;;;;;3.25;2.20;;;5.90;99.90;;;;;;5052528;28;20042;-73
2022/01/29 12:35:55;;;;;;;4.15;2.55;;;5.90;99.90;;;;;;5066740;28;20134;-73
2022/01/29 12:38:34;;;;;;;3.20;2.30;;;5.90;99.90;;;;;;5071196;28;20124;-73
2022/01/29 12:41:07;;;;;;;4.75;2.38;;;6.00;99.90;;;;;;5052410;28;20044;-73
2022/01/29 12:43:39;;;;;;;4.45;2.80;;;6.00;99.90;;;;;;5070649;28;20047;-73
2022/01/29 12:46:23;;;;;;;4.30;2.55;;;6.00;99.90;;;;;;5037663;28;20120;-73
2022/01/29 12:49:07;;;;;;;7.07;3.20;;;6.00;99.90;;;;;;5071071;28;20074;-73
2022/01/29 12:51:35;;;;;;;3.47;2.28;;;6.00;99.90;;;;;;5069945;28;20135;-74
2022/01/29 12:54:05;;;;;;;5.90;2.90;;;6.00;99.90;;;;;;5051738;28;20127;-73
2022/01/29 12:56:34;;;;;;;4.85;3.25;;;6.10;99.90;;;;;;5053264;28;20188;-73
2022/01/29 12:59:04;;;;;;;5.00;3.53;;;6.10;99.90;;;;;;5053231;28;20071;-73
2022/01/29 13:01:38;;;;;;;6.53;3.53;;;6.10;99.90;;;;;;5052926;28;20377;-73
2022/01/29 13:04:18;;;;;;;6.63;3.42;;;6.10;99.90;;;;;;5052828;28;20086;-74
2022/01/29 13:06:46;;;;;;;4.30;2.80;;;6.10;99.90;;;;;;5053224;28;20436;-73
2022/01/29 13:09:24;;;;;;;5.50;3.17;;;6.20;99.90;;;;;;5071136;28;20071;-74
2022/01/29 13:11:57;;;;;;;4.68;3.47;;;6.20;99.90;;;;;;5053212;28;20040;-73
2022/01/29 13:14:25;;;;;;;5.93;3.25;;;6.30;99.90;;;;;;5052685;28;20124;-74
2022/01/29 13:17:00;;;;;;;5.28;3.30;;;6.30;99.90;;;;;;5052663;28;20496;-74
2022/01/29 13:19:33;;;;;;;6.05;3.13;;;6.40;99.90;;;;;;5070671;28;20665;-73
2022/01/29 13:22:09;;;;;;;5.30;3.03;;;6.40;99.90;;;;;;5070791;28;20417;-73
2022/01/29 13:24:48;;;;;;;4.93;3.00;;;6.40;99.90;;;;;;5070351;28;20037;-73
2022/01/29 13:27:18;;;;;;;6.13;2.88;;;6.50;99.90;;;;;;5036892;28;20460;-74
2022/01/29 13:30:18;;;;;;;5.18;3.20;;;6.50;99.90;;;;;;5050967;28;20036;-72